Ogle, Kentucky
Current Conditions -  °F | °C
As of 10:53 PM on Sunday 23 Nov 2014 (Local Time) from KLOZ Reporting Station
Light Rain Light Rain  
Wind Chill: 61°   Ceiling: 3500
Heat Index: 61°   Visibility: 10mi
Dew Point: 53°   Wind: 18mph
Humidity: 75%   Direction: 180°S
Pressure: 29.46"   Gusts: 25mph
Location:  37.1101°N, 83.7537°W
Report Text: KLOZ 240353Z AUTO 18016G22KT 10SM -RA BKN035 OVC047 16/12 A2946 RMK AO2 RAB15 SLP970 P0000 T01610117
Loading
Personal Weather Stations






























Interactive Weather Map New forecast layout! Learn more

10-Day Weather Forecast

Advertisements
Track Severe Weather on mobile